Skagway, AK

7:13 PM AKST on January 31, 2015 (GMT -0900)
Skagway | Change Station
CLOSE
Current Station
Airport
Location: Skagway,
Elevation: 16 ft
Nearby Weather Stations
Active Advisory: Winter Weather Advisory

Elev 16 ft 59.46 °N, 135.32 °W | Updated 20 minutes ago

Clear
Clear
20 °F
Feels Like 3 °F
N
24
Wind Variable Wind from NNE
Gusts 50 mph

Today
High -- | Low -- °F
--% Chance of Precip.
Yesterday
High -- | Low -- °F
Precip. -- in
8:14 AM 4:15 PM
Waxing Gibbous, 93% visible
Pressure 30.46 in
Visibility 10.0 miles
Clouds Clear
Windchill 3 °F
Dew Point 2 °F
Humidity 46%
Rainfall 0.00 in
Snow Depth Not available.
UV 0 out of 12
Pollen Not available.
Air Quality Not available.
Flu Activity Not available.
METAR PAGY 010353Z AUTO 03021G43KT 10SM CLR M07/M17 A3046 RMK AO2 PK WND 04045/0254 SLP315 T10671167 TSNO

More Conditions Fewer Conditions

Pressure 30.46 in
Visibility 10.0 miles
Clouds Clear
Windchill 3 °F
Dew Point 2 °F
Humidity 46%
Rainfall 0.00 in
Snow Depth Not available.
UV 0 out of 12
Pollen Not available.
Air Quality Not available.
Flu Activity Not available.
METAR PAGY 010353Z AUTO 03021G43KT 10SM CLR M07/M17 A3046 RMK AO2 PK WND 04045/0254 SLP315 T10671167 TSNO

More Conditions Fewer Conditions

10-Day Weather Forecast

Almanac

Astronomy

Jan. 31, 2015 Rise Set
Actual Time
Civil Twilight
Nautical Twilight
Astronomical Twilight
Moon
Length of Visible Light
Length of Day
Tomorrow will be .
, % of the Moon is Illuminated

Today's Extremes

State Highs State Lows

Community

WunderPhotos

Upload Photos

1,792,301 photos uploaded!

WunderBlogs® & News

Nearby

Air Quality

  Air Quality AQ Index Pollutant
Not available.

Snow Depth

Station Depth Elevation

Earthquake Activity

City Distance Mag. Time & Date
Minimum magnitude displayed is 2.5.

Coastal Water Temperatures

Place Temperature

Nearby Weather Stations